Time;durP1;ratioP1;P1;durP2;ratioP2;P2;SDS_P1;SDS_P2;PMS_P1;PMS_P2;Temp;Humidity;BMP_temperature;BMP_pressure;BME280_temperature;BME280_humidity;BME280_pressure;Samples;Min_cycle;Max_cycle;Signal;HPM_P1;HPM_P2
2022/04/03 00:02:03;;;;;;;;;;;0.40;70.10;;;;;;8389598;28;19927;-68
2022/04/03 00:06:05;;;;;;;;;;;0.40;70.20;;;;;;8410824;28;19935;-68
2022/04/03 00:10:07;;;;;;;;;;;0.40;70.20;;;;;;8405702;28;19920;-68
2022/04/03 00:14:09;;;;;;;;;;;0.40;70.30;;;;;;8405147;28;19920;-68
2022/04/03 00:18:11;;;;;;;;;;;0.30;70.30;;;;;;8422360;28;19924;-68
2022/04/03 00:22:13;;;;;;;;;;;0.30;70.50;;;;;;8377668;28;19920;-68
2022/04/03 00:26:14;;;;;;;;;;;0.20;70.40;;;;;;8399591;28;19924;-68
2022/04/03 00:30:16;;;;;;;;;;;0.20;70.60;;;;;;8408401;28;19945;-68
2022/04/03 00:34:18;;;;;;;;;;;0.10;70.60;;;;;;8401833;28;19947;-68
2022/04/03 00:38:19;;;;;;;;;;;0.10;70.20;;;;;;8410081;28;19928;-68
2022/04/03 00:42:22;;;;;;;;;;;0.00;70.30;;;;;;8402896;28;20091;-68
2022/04/03 00:46:25;;;;;;;;;;;-0.10;70.60;;;;;;8406056;28;19928;-68
2022/04/03 00:50:26;;;;;;;;;;;-0.10;70.40;;;;;;8383910;28;19930;-68
2022/04/03 00:54:28;;;;;;;;;;;-0.10;70.50;;;;;;8412153;28;19931;-68
2022/04/03 00:58:31;;;;;;;;;;;-0.20;70.60;;;;;;8392330;28;19928;-68
2022/04/03 01:02:33;;;;;;;;;;;-0.20;70.50;;;;;;8407356;28;19920;-67
2022/04/03 01:06:35;;;;;;;;;;;-0.30;70.40;;;;;;8406516;28;19925;-68
2022/04/03 01:10:38;;;;;;;;;;;-0.30;70.60;;;;;;8403387;28;20378;-68
2022/04/03 01:14:41;;;;;;;;;;;-0.40;70.60;;;;;;8404555;28;19935;-68
2022/04/03 01:18:42;;;;;;;;;;;-0.50;70.60;;;;;;8407915;28;20291;-67
2022/04/03 01:22:44;;;;;;;;;;;-0.50;70.80;;;;;;8403643;28;19935;-68
2022/04/03 01:26:46;;;;;;;;;;;-0.60;70.90;;;;;;8396389;28;20276;-68
2022/04/03 01:30:48;;;;;;;;;;;-0.50;71.40;;;;;;8400110;28;19938;-68
2022/04/03 01:34:49;;;;;;;;;;;-0.50;71.60;;;;;;8411750;28;20299;-68
2022/04/03 01:38:51;;;;;;;;;;;-0.40;71.90;;;;;;8397523;28;19928;-67
2022/04/03 01:42:53;;;;;;;;;;;-0.40;72.10;;;;;;8398916;28;19919;-68
2022/04/03 01:46:54;;;;;;;;;;;-0.30;72.20;;;;;;8391525;28;20019;-68
2022/04/03 01:50:56;;;;;;;;;;;-0.30;72.40;;;;;;8407774;28;19928;-67
2022/04/03 01:54:59;;;;;;;;;;;-0.30;72.60;;;;;;8407558;28;19919;-68
2022/04/03 01:59:04;;;;;;;;;;;-0.30;72.50;;;;;;8419598;28;19920;-67
2022/04/03 02:03:06;;;;;;;;;;;-0.30;72.60;;;;;;8407818;28;20038;-68
2022/04/03 02:07:08;;;;;;;;;;;-0.40;72.40;;;;;;8405295;28;19923;-68
2022/04/03 02:11:09;;;;;;;;;;;-0.50;72.30;;;;;;8399900;28;19935;-67
2022/04/03 02:15:11;;;;;;;;;;;-0.50;72.20;;;;;;8390894;28;20260;-68
2022/04/03 02:19:13;;;;;;;;;;;-0.60;72.00;;;;;;8403485;28;19934;-68
2022/04/03 02:23:16;;;;;;;;;;;-0.60;72.10;;;;;;8402688;28;19931;-68
2022/04/03 02:27:17;;;;;;;;;;;-0.70;71.80;;;;;;8418794;28;20491;-68
2022/04/03 02:31:19;;;;;;;;;;;-0.80;71.70;;;;;;8424635;28;19929;-67
2022/04/03 02:35:21;;;;;;;;;;;-0.80;71.70;;;;;;8416127;28;19920;-67
2022/04/03 02:39:22;;;;;;;;;;;-0.90;72.00;;;;;;8415574;28;19920;-68
2022/04/03 02:43:24;;;;;;;;;;;-1.00;72.10;;;;;;8413525;28;19920;-68
2022/04/03 02:47:27;;;;;;;;;;;-1.00;72.50;;;;;;8419551;28;19920;-68
2022/04/03 02:51:28;;;;;;;;;;;-1.00;72.50;;;;;;8425097;28;19931;-67
2022/04/03 02:55:30;;;;;;;;;;;-0.90;72.60;;;;;;8422522;28;19920;-68
2022/04/03 02:59:32;;;;;;;;;;;-1.00;72.70;;;;;;8402862;28;19920;-68
2022/04/03 03:03:33;;;;;;;;;;;-0.90;72.90;;;;;;8432121;28;20380;-67
2022/04/03 03:07:39;;;;;;;;;;;-0.90;73.10;;;;;;8428773;28;19923;-68
2022/04/03 03:11:40;;;;;;;;;;;-0.90;73.00;;;;;;8425055;28;19977;-68
2022/04/03 03:15:42;;;;;;;;;;;-0.90;73.10;;;;;;8421242;28;19927;-68
2022/04/03 03:19:44;;;;;;;;;;;-0.90;73.20;;;;;;8419420;28;19920;-68
2022/04/03 03:23:45;;;;;;;;;;;-0.90;74.30;;;;;;8412916;28;19928;-68
2022/04/03 03:27:47;;;;;;;;;;;-1.00;74.10;;;;;;8412948;28;19921;-68
2022/04/03 03:31:49;;;;;;;;;;;-0.90;74.10;;;;;;8411969;28;19927;-68
2022/04/03 03:35:50;;;;;;;;;;;-0.90;74.20;;;;;;8397627;28;20614;-68
2022/04/03 03:39:53;;;;;;;;;;;-0.80;74.50;;;;;;8400779;28;19927;-68
2022/04/03 03:43:55;;;;;;;;;;;-0.80;74.90;;;;;;8408936;28;19924;-68
2022/04/03 03:47:59;;;;;;;;;;;-0.80;75.10;;;;;;8421713;28;20029;-68
2022/04/03 03:52:01;;;;;;;;;;;-0.70;75.00;;;;;;8414489;28;19920;-68
2022/04/03 03:56:04;;;;;;;;;;;-0.80;75.10;;;;;;8394192;28;19920;-68
2022/04/03 04:00:09;;;;;;;;;;;-0.80;75.10;;;;;;8398863;28;19954;-67
2022/04/03 04:04:11;;;;;;;;;;;-0.80;74.90;;;;;;8414359;28;20003;-68
2022/04/03 04:08:12;;;;;;;;;;;-0.90;74.60;;;;;;8407866;28;19921;-68
2022/04/03 04:12:14;;;;;;;;;;;-0.90;74.70;;;;;;8399736;28;19924;-68
2022/04/03 04:16:16;;;;;;;;;;;-1.00;74.80;;;;;;8395052;28;19935;-67
2022/04/03 04:20:18;;;;;;;;;;;-1.10;74.70;;;;;;8413921;28;19925;-68
2022/04/03 04:24:19;;;;;;;;;;;-1.10;74.50;;;;;;8406483;28;19928;-68
2022/04/03 04:28:21;;;;;;;;;;;-1.10;74.80;;;;;;8395998;28;19955;-68
2022/04/03 04:32:23;;;;;;;;;;;-1.10;75.00;;;;;;8385842;28;20339;-68
2022/04/03 04:36:26;;;;;;;;;;;-1.10;74.70;;;;;;8396747;28;19928;-68
2022/04/03 04:40:33;;;;;;;;;;;-1.10;74.80;;;;;;8400664;28;19928;-68
2022/04/03 04:44:34;;;;;;;;;;;-1.10;75.00;;;;;;8410441;28;19928;-68
2022/04/03 04:48:36;;;;;;;;;;;-1.10;75.10;;;;;;8386259;28;19927;-68
2022/04/03 04:52:39;;;;;;;;;;;-1.10;75.10;;;;;;8410261;28;19927;-68
2022/04/03 04:56:41;;;;;;;;;;;-1.10;75.40;;;;;;8411015;28;20395;-68
2022/04/03 05:00:42;;;;;;;;;;;-1.20;75.10;;;;;;8416909;28;19934;-67
2022/04/03 05:04:44;;;;;;;;;;;-1.10;75.20;;;;;;8420686;28;20420;-68
2022/04/03 05:08:46;;;;;;;;;;;-1.20;75.10;;;;;;8413457;28;19924;-68
2022/04/03 05:12:48;;;;;;;;;;;-1.20;75.30;;;;;;8418923;28;19935;-68
2022/04/03 05:16:50;;;;;;;;;;;-1.20;75.40;;;;;;8411100;28;20127;-68
2022/04/03 05:20:52;;;;;;;;;;;-1.30;75.40;;;;;;8417045;28;19920;-68
2022/04/03 05:24:53;;;;;;;;;;;-1.30;75.10;;;;;;8418140;28;19921;-68
2022/04/03 05:28:55;;;;;;;;;;;-1.30;75.30;;;;;;8408528;28;19924;-68
2022/04/03 05:32:57;;;;;;;;;;;-1.30;75.30;;;;;;8412898;28;19920;-68
2022/04/03 05:36:58;;;;;;;;;;;-1.30;75.40;;;;;;8412856;28;20292;-68
2022/04/03 05:41:00;;;;;;;;;;;-1.30;75.50;;;;;;8392282;28;20291;-68
2022/04/03 05:45:04;;;;;;;;;;;-1.30;75.50;;;;;;8413883;28;19927;-68
2022/04/03 05:49:06;;;;;;;;;;;-1.30;75.60;;;;;;8408869;28;20332;-68
2022/04/03 05:53:07;;;;;;;;;;;-1.30;75.90;;;;;;8413333;28;19927;-68
2022/04/03 05:57:10;;;;;;;;;;;-1.30;76.20;;;;;;8414014;28;19924;-68
2022/04/03 06:01:11;;;;;;;;;;;-1.20;76.40;;;;;;8409881;28;20280;-68
2022/04/03 06:05:13;;;;;;;;;;;-1.10;76.90;;;;;;8414380;28;19920;-68
2022/04/03 06:09:15;;;;;;;;;;;-1.00;77.30;;;;;;8405644;28;19930;-68
2022/04/03 06:13:17;;;;;;;;;;;-0.80;78.00;;;;;;8382828;28;19927;-68
2022/04/03 06:17:18;;;;;;;;;;;-0.70;78.70;;;;;;8410485;28;20046;-68
2022/04/03 06:21:20;;;;;;;;;;;-0.50;79.30;;;;;;8418516;28;19923;-68
2022/04/03 06:25:22;;;;;;;;;;;-0.40;79.70;;;;;;8398661;28;19958;-68
2022/04/03 06:29:23;;;;;;;;;;;-0.20;80.30;;;;;;8391095;28;19927;-68
2022/04/03 06:33:25;;;;;;;;;;;-0.10;80.90;;;;;;8399884;28;19976;-68
2022/04/03 06:37:27;;;;;;;;;;;0.10;81.40;;;;;;8428992;28;19970;-68
2022/04/03 06:41:28;;;;;;;;;;;0.30;81.60;;;;;;8410332;28;19928;-68
2022/04/03 06:45:31;;;;;;;;;;;0.50;82.70;;;;;;8374154;28;19924;-68
2022/04/03 06:49:33;;;;;;;;;;;0.70;82.90;;;;;;8373315;28;20062;-67
2022/04/03 06:53:34;;;;;;;;;;;0.90;84.30;;;;;;8393501;28;19927;-68
2022/04/03 06:57:36;;;;;;;;;;;1.10;86.00;;;;;;8383194;28;20390;-68
2022/04/03 07:01:39;;;;;;;;;;;1.40;86.50;;;;;;8390516;28;19926;-67
2022/04/03 07:05:41;;;;;;;;;;;1.50;86.90;;;;;;8394147;28;19927;-68
2022/04/03 07:09:43;;;;;;;;;;;1.80;87.90;;;;;;8390977;28;19920;-68
2022/04/03 07:13:45;;;;;;;;;;;2.00;89.20;;;;;;8394126;28;19920;-68
2022/04/03 07:17:46;;;;;;;;;;;2.30;90.90;;;;;;8393143;28;19923;-68
2022/04/03 07:21:50;;;;;;;;;;;2.60;91.70;;;;;;8405668;28;19920;-68
2022/04/03 07:25:52;;;;;;;;;;;2.90;91.60;;;;;;8391959;28;19978;-68
2022/04/03 07:29:53;;;;;;;;;;;3.00;91.40;;;;;;8387667;28;19927;-68
2022/04/03 07:33:55;;;;;;;;;;;3.10;92.20;;;;;;8365200;28;19921;-68
2022/04/03 07:38:00;;;;;;;;;;;3.20;91.60;;;;;;8395303;28;19921;-68
2022/04/03 07:42:03;;;;;;;;;;;3.20;91.80;;;;;;8393776;28;19924;-68
2022/04/03 07:46:05;;;;;;;;;;;3.30;91.70;;;;;;8384826;28;19923;-67
2022/04/03 07:50:07;;;;;;;;;;;3.50;92.30;;;;;;8392583;28;19924;-68
2022/04/03 07:54:08;;;;;;;;;;;3.70;92.60;;;;;;8391446;28;20693;-68
2022/04/03 07:58:11;;;;;;;;;;;4.00;93.10;;;;;;8405881;28;20355;-67
2022/04/03 08:02:13;;;;;;;3.53;1.83;;;4.20;93.10;;;;;;8405944;28;19931;-68
2022/04/03 08:06:15;;;;;;;4.32;1.75;;;4.50;92.60;;;;;;8390243;28;20389;-68
2022/04/03 08:10:20;;;;;;;3.58;1.70;;;4.70;92.60;;;;;;8387841;28;20059;-68
2022/04/03 08:14:22;;;;;;;3.55;1.40;;;4.90;92.60;;;;;;8393101;28;20056;-68
2022/04/03 08:18:24;;;;;;;2.90;1.40;;;5.10;92.50;;;;;;8388536;28;20133;-68
2022/04/03 08:22:26;;;;;;;3.28;1.50;;;5.30;92.60;;;;;;8388309;28;20642;-68
2022/04/03 08:26:28;;;;;;;3.67;1.52;;;5.50;92.90;;;;;;8386541;28;20048;-68
2022/04/03 08:30:31;;;;;;;;;;;5.80;93.20;;;;;;8380674;28;20427;-67
2022/04/03 08:34:33;;;;;;;;;;;5.90;92.90;;;;;;8390019;28;19935;-68
2022/04/03 08:38:50;;;;;;;;;;;6.00;92.80;;;;;;8390910;28;19921;-68
2022/04/03 08:42:52;;;;;;;;;;;6.10;93.20;;;;;;8400744;28;19920;-68
2022/04/03 08:46:55;;;;;;;;;;;6.30;93.10;;;;;;8372500;28;19927;-68
2022/04/03 08:50:57;;;;;;;;;;;6.50;93.10;;;;;;8371710;28;20213;-68
2022/04/03 08:54:59;;;;;;;;;;;6.70;92.80;;;;;;8388526;28;19971;-68
2022/04/03 08:59:02;;;;;;;;;;;6.90;92.60;;;;;;8394079;28;19925;-67
2022/04/03 09:03:03;;;;;;;;;;;7.10;92.80;;;;;;8392494;28;19920;-68
2022/04/03 09:07:05;;;;;;;;;;;7.40;92.90;;;;;;8393425;28;19929;-68
2022/04/03 09:11:08;;;;;;;;;;;7.70;93.10;;;;;;8391478;28;19928;-68
2022/04/03 09:15:11;;;;;;;;;;;8.10;93.70;;;;;;8381977;28;20089;-68
2022/04/03 09:19:13;;;;;;;;;;;8.30;93.10;;;;;;8403241;28;19973;-68
2022/04/03 09:23:17;;;;;;;;;;;8.20;93.20;;;;;;8383669;28;19928;-68
2022/04/03 09:27:18;;;;;;;;;;;8.00;93.00;;;;;;8391034;28;19935;-68
2022/04/03 09:31:30;;;;;;;;;;;7.80;93.10;;;;;;8387516;28;19928;-68
2022/04/03 09:35:32;;;;;;;;;;;7.80;93.20;;;;;;8387198;28;19927;-68
2022/04/03 09:39:34;;;;;;;;;;;7.70;93.50;;;;;;8379739;28;19924;-68
2022/04/03 09:43:38;;;;;;;;;;;7.70;92.90;;;;;;8386413;28;19920;-68
2022/04/03 09:47:40;;;;;;;;;;;7.70;92.50;;;;;;8387629;28;20332;-68
2022/04/03 09:51:42;;;;;;;;;;;7.70;92.80;;;;;;8369140;28;20297;-68
2022/04/03 09:55:44;;;;;;;;;;;7.90;93.30;;;;;;8383541;28;19930;-68
2022/04/03 09:59:50;;;;;;;;;;;8.30;93.90;;;;;;8382562;28;19932;-67
2022/04/03 10:03:52;;;;;;;;;;;8.40;93.50;;;;;;8385650;28;19928;-68
2022/04/03 10:07:55;;;;;;;;;;;8.50;93.80;;;;;;8374377;28;19928;-68
2022/04/03 10:11:57;;;;;;;;;;;8.50;94.10;;;;;;8367556;28;20371;-68
2022/04/03 10:15:58;;;;;;;;;;;8.30;94.00;;;;;;8380585;28;19929;-68
2022/04/03 10:20:00;;;;;;;;;;;8.00;93.90;;;;;;8404010;28;20661;-68
2022/04/03 10:24:08;;;;;;;;;;;7.90;94.10;;;;;;8388504;28;20367;-68
2022/04/03 10:28:10;;;;;;;;;;;7.90;94.30;;;;;;8393836;28;20245;-68
2022/04/03 10:32:22;;;;;;;;;;;7.80;94.70;;;;;;8388129;28;19994;-68
2022/04/03 10:36:29;;;;;;;;;;;7.80;94.80;;;;;;8392783;28;19927;-68
2022/04/03 10:40:32;;;;;;;;;;;7.90;95.30;;;;;;8389727;28;20368;-67
2022/04/03 10:44:34;;;;;;;2.55;1.35;;;8.20;96.00;;;;;;8387357;28;19943;-68
2022/04/03 10:48:36;;;;;;;;;;;8.50;97.40;;;;;;8391302;28;20048;-68
2022/04/03 10:52:37;;;;;;;;;;;9.00;99.20;;;;;;8392130;28;19930;-68
2022/04/03 10:56:39;;;;;;;;;;;9.50;99.90;;;;;;8385368;28;19929;-68
2022/04/03 11:00:41;;;;;;;;;;;10.00;99.90;;;;;;8390800;28;20347;-68
2022/04/03 11:04:43;;;;;;;;;;;10.40;99.90;;;;;;8394840;28;19926;-68
2022/04/03 11:08:53;;;;;;;;;;;10.60;99.90;;;;;;8392134;28;20391;-68
2022/04/03 11:12:55;;;;;;;;;;;10.90;99.90;;;;;;8392867;28;20394;-68
2022/04/03 11:16:57;;;;;;;1.35;0.80;;;11.30;99.90;;;;;;8390327;28;19928;-68
2022/04/03 11:21:10;;;;;;;4.07;1.00;;;11.60;99.90;;;;;;8373635;28;20037;-68
2022/04/03 11:25:11;;;;;;;1.48;0.80;;;12.00;99.90;;;;;;8392464;28;20036;-68
2022/04/03 11:29:13;;;;;;;;;;;12.10;99.90;;;;;;8374207;28;20051;-68
2022/04/03 11:33:15;;;;;;;;;;;12.60;99.90;;;;;;8373463;28;19920;-68
2022/04/03 11:37:17;;;;;;;;;;;13.00;99.90;;;;;;8373956;28;19966;-68
2022/04/03 11:41:27;;;;;;;;;;;13.20;99.90;;;;;;8386944;28;19928;-68
2022/04/03 11:45:28;;;;;;;;;;;13.30;99.90;;;;;;8384527;28;20136;-68
2022/04/03 11:49:31;;;;;;;;;;;13.10;99.90;;;;;;8388092;28;19924;-68
2022/04/03 11:53:33;;;;;;;2.65;1.10;;;13.10;99.90;;;;;;8389590;28;19921;-68
2022/04/03 11:57:35;;;;;;;;;;;12.80;99.90;;;;;;8374710;28;20096;-68
2022/04/03 12:01:41;;;;;;;;;;;12.20;99.90;;;;;;8371320;28;19998;-68
2022/04/03 12:05:42;;;;;;;;;;;11.90;99.10;;;;;;8386448;28;19999;-68
2022/04/03 12:09:44;;;;;;;;;;;11.70;97.40;;;;;;8390316;28;20349;-68
2022/04/03 12:13:46;;;;;;;;;;;11.30;95.50;;;;;;8383996;28;19945;-68
2022/04/03 12:17:54;;;;;;;;;;;10.90;95.20;;;;;;8405099;28;19955;-68
2022/04/03 12:21:57;;;;;;;;;;;10.60;94.40;;;;;;8388313;28;20819;-68
2022/04/03 12:25:58;;;;;;;;;;;10.10;93.50;;;;;;8387153;28;19947;-68
2022/04/03 12:30:00;;;;;;;;;;;9.40;93.80;;;;;;8372130;28;19924;-68
2022/04/03 12:34:07;;;;;;;;;;;9.00;93.80;;;;;;8388202;28;19963;-68
2022/04/03 12:38:11;;;;;;;;;;;8.70;93.60;;;;;;8387806;28;19935;-68
2022/04/03 12:42:17;;;;;;;;;;;8.50;93.30;;;;;;8388364;28;19927;-68
2022/04/03 12:46:19;;;;;;;;;;;8.60;93.00;;;;;;8391544;28;19943;-68
2022/04/03 12:50:23;;;;;;;;;;;8.60;93.00;;;;;;8387121;28;20011;-68
2022/04/03 12:54:40;;;;;;;;;;;8.80;93.10;;;;;;8376114;28;19928;-68
2022/04/03 12:58:48;;;;;;;;;;;9.00;93.40;;;;;;8388764;28;19928;-68
2022/04/03 13:02:54;;;;;;;3.15;0.90;;;9.40;94.10;;;;;;8386280;28;20239;-68
2022/04/03 13:06:56;;;;;;;2.60;0.80;;;9.90;94.50;;;;;;8386760;28;20075;-68
2022/04/03 13:10:59;;;;;;;2.53;1.00;;;10.20;93.70;;;;;;8389133;28;20071;-68
2022/04/03 13:15:02;;;;;;;1.88;1.00;;;10.30;93.30;;;;;;8373115;28;20113;-68
2022/04/03 13:19:04;;;;;;;2.65;1.10;;;10.40;93.10;;;;;;8386657;28;20064;-68
2022/04/03 13:23:06;;;;;;;2.03;0.82;;;10.40;93.10;;;;;;8393363;28;20056;-68
2022/04/03 13:27:08;;;;;;;3.72;0.90;;;10.40;92.80;;;;;;8389323;28;20059;-68
2022/04/03 13:31:09;;;;;;;2.00;1.10;;;10.30;92.60;;;;;;8387512;28;20053;-68
2022/04/03 13:35:11;;;;;;;2.42;1.17;;;10.10;92.20;;;;;;8379157;28;20048;-68
2022/04/03 13:39:13;;;;;;;2.42;1.00;;;9.80;92.30;;;;;;8387107;28;20040;-68
2022/04/03 13:43:19;;;;;;;2.53;1.00;;;9.10;92.60;;;;;;8384043;28;20136;-68
2022/04/03 13:47:21;;;;;;;;;;;8.30;92.90;;;;;;8388192;28;20055;-68
2022/04/03 13:51:22;;;;;;;;;;;7.70;93.10;;;;;;8380307;28;19932;-68
2022/04/03 13:55:24;;;;;;;;;;;7.30;93.50;;;;;;8380969;28;19924;-68
2022/04/03 13:59:26;;;;;;;;;;;7.20;93.80;;;;;;8387407;28;20745;-68
2022/04/03 14:03:30;;;;;;;;;;;7.10;94.20;;;;;;8401302;28;20205;-68
2022/04/03 14:07:32;;;;;;;;;;;7.10;94.40;;;;;;8389553;28;19925;-68
2022/04/03 14:11:34;;;;;;;;;;;7.10;94.60;;;;;;8387988;28;20380;-68
2022/04/03 14:15:37;;;;;;;;;;;7.10;94.80;;;;;;8386080;28;20372;-68
2022/04/03 14:19:38;;;;;;;;;;;7.10;95.00;;;;;;8370704;28;19947;-68
2022/04/03 14:23:40;;;;;;;;;;;7.30;95.30;;;;;;8389672;28;19949;-67
2022/04/03 14:27:42;;;;;;;;;;;7.40;95.40;;;;;;8390089;28;20360;-68
2022/04/03 14:31:44;;;;;;;;;;;7.50;95.60;;;;;;8379114;28;19928;-68
2022/04/03 14:35:46;;;;;;;;;;;7.60;95.80;;;;;;8387879;28;19972;-68
2022/04/03 14:39:48;;;;;;;;;;;7.70;96.00;;;;;;8399679;28;19924;-68
2022/04/03 14:43:49;;;;;;;;;;;7.80;96.10;;;;;;8388109;28;20210;-68
2022/04/03 14:47:51;;;;;;;;;;;8.00;96.40;;;;;;8387441;28;19998;-68
2022/04/03 14:51:53;;;;;;;;;;;8.20;96.60;;;;;;8387322;28;19929;-68
2022/04/03 14:55:57;;;;;;;;;;;8.40;96.90;;;;;;8384623;28;20390;-68
2022/04/03 15:00:04;;;;;;;4.03;2.00;;;8.60;97.50;;;;;;8398684;28;19932;-68
2022/04/03 15:04:07;;;;;;;;;;;9.10;98.90;;;;;;8376568;28;20049;-68
2022/04/03 15:08:09;;;;;;;4.35;2.10;;;10.00;99.90;;;;;;8387464;28;19981;-68
2022/04/03 15:12:11;;;;;;;;;;;11.50;99.90;;;;;;8388306;28;20059;-68
2022/04/03 15:16:12;;;;;;;3.72;1.70;;;13.00;99.90;;;;;;8391235;28;20289;-68
2022/04/03 15:20:14;;;;;;;3.42;1.40;;;13.60;99.90;;;;;;8378212;28;20040;-68
2022/04/03 15:24:16;;;;;;;;;;;13.50;99.90;;;;;;8395011;28;20052;-68
2022/04/03 15:28:18;;;;;;;;;;;13.80;99.90;;;;;;8395298;28;20398;-68
2022/04/03 15:32:20;;;;;;;;;;;14.60;99.90;;;;;;8389919;28;19924;-68
2022/04/03 15:36:24;;;;;;;1.70;0.98;;;14.40;99.90;;;;;;8404152;28;19927;-68
2022/04/03 15:40:31;;;;;;;;;;;13.50;99.90;;;;;;8374799;28;20041;-68
2022/04/03 15:44:33;;;;;;;;;;;12.50;99.00;;;;;;8376668;28;19931;-68
2022/04/03 15:48:35;;;;;;;;;;;11.70;97.60;;;;;;8389883;28;19921;-68
2022/04/03 15:52:37;;;;;;;;;;;11.20;96.80;;;;;;8384009;28;19920;-68
2022/04/03 15:56:39;;;;;;;;;;;10.80;96.40;;;;;;8390281;28;19982;-68
2022/04/03 16:00:40;;;;;;;;;;;10.60;95.80;;;;;;8390937;28;19925;-68
2022/04/03 16:04:42;;;;;;;;;;;11.00;97.00;;;;;;8390572;28;19928;-68
2022/04/03 16:08:49;;;;;;;;;;;12.00;98.60;;;;;;8378935;28;19927;-68
2022/04/03 16:12:51;;;;;;;;;;;12.20;97.30;;;;;;8391947;28;20383;-68
2022/04/03 16:16:53;;;;;;;;;;;12.40;96.90;;;;;;8395661;28;19955;-68
2022/04/03 16:20:54;;;;;;;;;;;12.90;96.10;;;;;;8408087;28;20030;-68
2022/04/03 16:24:56;;;;;;;;;;;12.60;94.60;;;;;;8402382;28;19927;-68
2022/04/03 16:28:58;;;;;;;;;;;12.40;94.20;;;;;;8385696;28;19928;-68
2022/04/03 16:32:59;;;;;;;;;;;12.10;93.30;;;;;;8391532;28;19928;-68
2022/04/03 16:37:01;;;;;;;;;;;13.00;95.00;;;;;;8375652;28;19940;-68
2022/04/03 16:41:04;;;;;;;3.35;0.90;;;13.90;96.00;;;;;;8389362;28;19927;-68
2022/04/03 16:45:06;;;;;;;;;;;14.30;95.00;;;;;;8388170;28;20049;-68
2022/04/03 16:49:08;;;;;;;;;;;13.60;92.30;;;;;;8388805;28;20229;-68
2022/04/03 16:53:10;;;;;;;;;;;12.60;91.40;;;;;;8392074;28;19932;-68
2022/04/03 16:57:12;;;;;;;;;;;11.80;90.50;;;;;;8382015;28;20280;-68
2022/04/03 17:01:14;;;;;;;;;;;11.20;89.80;;;;;;8374684;28;19944;-68
2022/04/03 17:05:16;;;;;;;;;;;11.40;90.50;;;;;;8388636;28;19928;-68
2022/04/03 17:09:18;;;;;;;;;;;12.20;90.80;;;;;;8369988;28;20399;-68
2022/04/03 17:13:19;;;;;;;;;;;12.90;91.20;;;;;;8380191;28;20321;-65
2022/04/03 17:17:25;;;;;;;;;;;13.00;90.10;;;;;;8390958;28;19921;-66
2022/04/03 17:21:26;;;;;;;;;;;12.40;87.00;;;;;;8385612;28;19935;-68
2022/04/03 17:25:28;;;;;;;;;;;11.90;86.40;;;;;;8390003;28;19924;-68
2022/04/03 17:29:29;;;;;;;;;;;11.30;85.00;;;;;;8390339;28;19951;-68
2022/04/03 17:33:31;;;;;;;1.92;0.80;;;10.60;84.60;;;;;;8375999;28;19928;-68
2022/04/03 17:37:37;;;;;;;2.17;1.00;;;10.20;85.10;;;;;;8378546;28;20063;-68
2022/04/03 17:41:40;;;;;;;3.78;1.05;;;9.80;86.50;;;;;;8377645;28;20037;-68
2022/04/03 17:45:42;;;;;;;;;;;9.60;86.40;;;;;;8388715;28;20351;-68
2022/04/03 17:49:43;;;;;;;;;;;9.50;87.10;;;;;;8385282;28;20005;-68
2022/04/03 17:53:45;;;;;;;;;;;9.60;86.90;;;;;;8389180;28;19931;-68
2022/04/03 17:57:47;;;;;;;;;;;9.40;86.40;;;;;;8382486;28;19947;-68
2022/04/03 18:01:48;;;;;;;;;;;9.30;86.60;;;;;;8391355;28;19947;-68
2022/04/03 18:05:50;;;;;;;;;;;9.10;85.90;;;;;;8387572;28;19971;-68
2022/04/03 18:09:52;;;;;;;;;;;8.80;85.10;;;;;;8384614;28;20331;-67
2022/04/03 18:13:54;;;;;;;;;;;8.40;85.20;;;;;;8370310;28;19921;-68
2022/04/03 18:17:56;;;;;;;;;;;8.10;84.90;;;;;;8387356;28;19920;-68
2022/04/03 18:22:19;;;;;;;;;;;7.90;85.50;;;;;;8383773;28;19951;-68
2022/04/03 18:26:22;;;;;;;;;;;7.70;84.90;;;;;;8385729;28;19939;-68
2022/04/03 18:30:24;;;;;;;;;;;7.50;84.50;;;;;;8385260;28;19920;-68
2022/04/03 18:34:25;;;;;;;;;;;7.40;84.70;;;;;;8365442;28;20276;-68
2022/04/03 18:38:33;;;;;;;;;;;7.20;84.50;;;;;;8383151;28;19921;-68
2022/04/03 18:42:35;;;;;;;;;;;7.10;84.40;;;;;;8373012;28;19935;-68
2022/04/03 18:46:37;;;;;;;;;;;7.00;85.00;;;;;;8386284;28;19928;-68
2022/04/03 18:50:39;;;;;;;;;;;6.90;84.90;;;;;;8389377;28;19962;-68
2022/04/03 18:54:40;;;;;;;;;;;6.80;84.90;;;;;;8388911;28;20236;-68
2022/04/03 18:58:42;;;;;;;;;;;6.70;84.90;;;;;;8387947;28;20414;-68
2022/04/03 19:02:45;;;;;;;;;;;6.60;85.10;;;;;;8405571;28;19931;-68
2022/04/03 19:06:47;;;;;;;;;;;6.60;84.90;;;;;;8373102;28;19927;-68
2022/04/03 19:10:49;;;;;;;;;;;6.50;85.00;;;;;;8387305;28;19920;-68
2022/04/03 19:14:51;;;;;;;;;;;6.40;85.00;;;;;;8370328;28;19953;-68
2022/04/03 19:18:52;;;;;;;;;;;6.40;85.00;;;;;;8373093;28;19932;-68
2022/04/03 19:22:54;;;;;;;;;;;6.30;85.10;;;;;;8390445;28;19921;-68
2022/04/03 19:26:56;;;;;;;;;;;6.30;85.50;;;;;;8389021;28;20474;-67
2022/04/03 19:30:58;;;;;;;;;;;6.20;85.30;;;;;;8391282;28;19973;-68
2022/04/03 19:34:59;;;;;;;;;;;6.20;85.40;;;;;;8390903;28;19971;-68
2022/04/03 19:39:01;;;;;;;;;;;6.10;85.50;;;;;;8403764;28;19939;-68
2022/04/03 19:43:04;;;;;;;;;;;6.10;85.60;;;;;;8375487;28;19921;-68
2022/04/03 19:47:05;;;;;;;;;;;6.00;85.50;;;;;;8387616;28;19928;-68
2022/04/03 19:51:07;;;;;;;;;;;6.00;85.70;;;;;;8368385;28;19920;-68
2022/04/03 19:55:09;;;;;;;;;;;5.90;85.70;;;;;;8387131;28;19932;-68
2022/04/03 19:59:11;;;;;;;;;;;5.80;85.60;;;;;;8367560;28;19928;-68
2022/04/03 20:03:12;;;;;;;;;;;5.80;85.40;;;;;;8382872;28;19927;-68
2022/04/03 20:07:14;;;;;;;;;;;5.70;85.30;;;;;;8382554;28;19920;-68
2022/04/03 20:11:16;;;;;;;;;;;5.50;85.70;;;;;;8368900;28;20258;-68
2022/04/03 20:15:18;;;;;;;;;;;5.50;85.70;;;;;;8386064;28;19928;-68
2022/04/03 20:19:20;;;;;;;;;;;5.40;85.50;;;;;;8386056;28;19927;-68
2022/04/03 20:23:21;;;;;;;;;;;5.40;85.90;;;;;;8390727;28;19928;-68
2022/04/03 20:27:23;;;;;;;;;;;5.40;86.30;;;;;;8402626;28;20253;-68
2022/04/03 20:31:25;;;;;;;;;;;5.30;85.70;;;;;;8365733;28;19931;-68
2022/04/03 20:35:27;;;;;;;;;;;5.20;85.90;;;;;;8386124;28;20283;-68
2022/04/03 20:39:29;;;;;;;;;;;5.10;85.50;;;;;;8384105;28;19931;-68
2022/04/03 20:43:31;;;;;;;;;;;5.10;85.70;;;;;;8385421;28;19927;-68
2022/04/03 20:47:33;;;;;;;;;;;5.00;85.20;;;;;;8383888;28;19923;-68
2022/04/03 20:51:35;;;;;;;;;;;5.00;85.50;;;;;;8386121;28;19920;-68
2022/04/03 20:55:36;;;;;;;;;;;4.90;85.40;;;;;;8386217;28;19924;-68
2022/04/03 20:59:38;;;;;;;;;;;4.80;85.70;;;;;;8399979;28;20341;-68
2022/04/03 21:03:40;;;;;;;;;;;4.80;86.10;;;;;;8387717;28;20371;-68
2022/04/03 21:07:41;;;;;;;;;;;4.70;86.10;;;;;;8406894;28;20380;-68
2022/04/03 21:11:43;;;;;;;;;;;4.70;87.20;;;;;;8381265;28;19924;-68
2022/04/03 21:15:45;;;;;;;;;;;4.60;87.10;;;;;;8395991;28;19926;-68
2022/04/03 21:19:47;;;;;;;;;;;4.60;87.10;;;;;;8408734;28;19927;-68
2022/04/03 21:23:51;;;;;;;;;;;4.50;87.60;;;;;;8378169;28;19953;-68
2022/04/03 21:27:53;;;;;;;;;;;4.40;87.70;;;;;;8382875;28;19931;-68
2022/04/03 21:31:54;;;;;;;;;;;4.40;87.80;;;;;;8392650;28;19927;-68
2022/04/03 21:35:56;;;;;;;;;;;4.30;87.50;;;;;;8401973;28;19920;-68
2022/04/03 21:39:58;;;;;;;;;;;4.20;88.00;;;;;;8384761;28;19927;-68
2022/04/03 21:44:00;;;;;;;;;;;4.20;87.90;;;;;;8404246;28;19924;-68
2022/04/03 21:48:04;;;;;;;;;;;4.10;87.40;;;;;;8405507;28;19920;-68
2022/04/03 21:52:05;;;;;;;;;;;4.00;89.50;;;;;;8400157;28;19927;-68
2022/04/03 21:56:07;;;;;;;;;;;3.90;91.40;;;;;;8372846;28;19928;-68
2022/04/03 22:00:32;;;;;;;;;;;3.80;91.60;;;;;;8406627;28;19920;-68
2022/04/03 22:04:34;;;;;;;;;;;3.70;90.10;;;;;;8392799;28;19920;-68
2022/04/03 22:08:36;;;;;;;;;;;3.70;90.50;;;;;;8403617;28;19958;-68
2022/04/03 22:12:37;;;;;;;;;;;3.60;91.90;;;;;;8411003;28;20348;-68
2022/04/03 22:16:39;;;;;;;;;;;3.50;91.10;;;;;;8409364;28;20327;-68
2022/04/03 22:20:41;;;;;;;;;;;3.40;94.30;;;;;;8411637;28;19920;-68
2022/04/03 22:24:43;;;;;;;;;;;3.40;93.00;;;;;;8387000;28;19927;-68
2022/04/03 22:28:44;;;;;;;;;;;3.40;92.60;;;;;;8406626;28;19928;-68
2022/04/03 22:32:49;;;;;;;;;;;3.30;93.60;;;;;;8397640;28;19920;-68
2022/04/03 22:36:51;;;;;;;;;;;3.30;96.40;;;;;;8393960;28;19927;-68
2022/04/03 22:40:52;;;;;;;;;;;3.30;93.80;;;;;;8416760;28;20023;-68
2022/04/03 22:44:54;;;;;;;;;;;3.30;93.00;;;;;;8404135;28;19935;-68
2022/04/03 22:48:56;;;;;;;;;;;3.30;94.50;;;;;;8403961;28;19981;-68
2022/04/03 22:52:58;;;;;;;;;;;3.30;95.80;;;;;;8410625;28;19932;-68
2022/04/03 22:56:59;;;;;;;;;;;3.20;94.70;;;;;;8387534;28;19938;-67
2022/04/03 23:01:01;;;;;;;;;;;3.20;95.00;;;;;;8394769;28;19920;-67
2022/04/03 23:05:03;;;;;;;;;;;3.20;93.70;;;;;;8411773;28;20193;-67
2022/04/03 23:09:05;;;;;;;;;;;3.10;94.80;;;;;;8386077;28;19920;-67
2022/04/03 23:13:06;;;;;;;;;;;3.10;94.60;;;;;;8398435;28;19927;-68
2022/04/03 23:17:08;;;;;;;;;;;3.10;96.10;;;;;;8410192;28;20256;-68
2022/04/03 23:21:10;;;;;;;;;;;3.10;99.90;;;;;;8420840;28;19928;-68
2022/04/03 23:25:11;;;;;;;;;;;3.10;96.00;;;;;;8393760;28;20268;-67